Main page
METAR-TAF:

METAR-TAF

Airports :

Athens International Airport

Athens, Greece

latitude: 37-56N, longitude: 023-56E, elevation: 94 m

Current weather observation

The report was made 23 minutes ago, at 03:20 UTC
Wind 1 kt from the North/Northeast
Temperature 22°C
Humidity 53%
Pressure 1010 hPa
Visibility 10 km or more
no clouds below 1500 m and no cumulonimbus

METAR: LGAV 180320Z 03001KT CAVOK 22/12 Q1010 NOSIG

Time: 06:43 (03:43 UTC)

Forecast

The report was made 4 hours and 43 minutes ago, at 23:00 UTC
Forecast valid from 18 at 00 UTC to 18 at 24 UTC
Wind 12 kt from the North/Northwest
Visibility 10 km or more
Few clouds at a height of 3000 ft

TAF: LGAV 172300Z 1800/1824 34012KT 9999 FEW030

Weather observations and forecasts of more than 4000 airports (METAR and TAF reports).

The available stations are represented by yellow and red dots on the map.

Hover mouse over dot to see the name of the station.

Then click to see weather observations and forecasts.

To change the map : click on the green buttons with a black cross to zoom in, on the green button with a dash to zoom out, or on the green arrows for adjacent maps.


METAR-TAF: